Time;durP1;ratioP1;P1;durP2;ratioP2;P2;SDS_P1;SDS_P2;PMS_P1;PMS_P2;Temp;Humidity;BMP_temperature;BMP_pressure;BME280_temperature;BME280_humidity;BME280_pressure;Samples;Min_cycle;Max_cycle;Signal;HPM_P1;HPM_P2
2022/08/20 00:01:38;;;;;;;2.28;1.50;;;26.30;53.00;;;;;;5060363;28;20044;-69
2022/08/20 00:04:03;;;;;;;1.80;1.30;;;26.30;53.00;;;;;;5060575;28;20106;-69
2022/08/20 00:06:29;;;;;;;2.15;1.50;;;26.30;53.00;;;;;;5058808;28;20036;-69
2022/08/20 00:08:55;;;;;;;2.20;1.50;;;26.30;53.00;;;;;;5061044;28;20029;-69
2022/08/20 00:11:26;;;;;;;2.00;1.42;;;26.30;53.10;;;;;;5059238;28;20029;-68
2022/08/20 00:13:55;;;;;;;1.90;1.35;;;26.30;53.00;;;;;;5057658;28;20049;-70
2022/08/20 00:16:24;;;;;;;2.45;1.58;;;26.30;53.50;;;;;;5060945;28;20024;-70
2022/08/20 00:18:50;;;;;;;1.92;1.50;;;26.30;53.00;;;;;;5062978;28;20400;-70
2022/08/20 00:21:18;;;;;;;2.15;1.52;;;26.30;53.00;;;;;;5063263;28;20040;-70
2022/08/20 00:23:46;;;;;;;2.03;1.42;;;26.30;53.00;;;;;;5063244;28;20498;-70
2022/08/20 00:26:13;;;;;;;2.13;1.70;;;26.30;53.00;;;;;;5064671;28;20165;-70
2022/08/20 00:28:39;;;;;;;1.90;1.50;;;26.30;53.00;;;;;;5063577;28;20387;-70
2022/08/20 00:31:08;;;;;;;1.77;1.38;;;26.30;53.00;;;;;;5062329;28;20021;-70
2022/08/20 00:33:34;;;;;;;1.85;1.45;;;26.30;53.00;;;;;;5063268;28;20468;-70
2022/08/20 00:36:05;;;;;;;1.83;1.40;;;26.30;53.00;;;;;;5063374;28;20033;-70
2022/08/20 00:38:32;;;;;;;2.15;1.55;;;26.30;53.00;;;;;;5062051;28;20045;-70
2022/08/20 00:40:58;;;;;;;1.65;1.40;;;26.30;53.00;;;;;;5063762;28;20032;-70
2022/08/20 00:43:37;;;;;;;1.90;1.40;;;26.30;53.00;;;;;;5062830;28;20481;-70
2022/08/20 00:46:12;;;;;;;2.03;1.42;;;26.30;53.00;;;;;;5063144;28;20033;-70
2022/08/20 00:48:41;;;;;;;2.00;1.50;;;26.30;53.10;;;;;;5063859;28;20044;-70
2022/08/20 00:51:37;;;;;;;1.70;1.40;;;26.30;53.00;;;;;;5062723;28;20017;-70
2022/08/20 00:54:23;;;;;;;1.90;1.48;;;26.30;53.00;;;;;;5062466;28;20021;-70
2022/08/20 00:56:55;;;;;;;2.85;1.50;;;26.30;53.00;;;;;;5063444;28;20389;-70
2022/08/20 00:59:26;;;;;;;2.33;1.70;;;26.30;53.00;;;;;;5079066;28;20029;-70
2022/08/20 01:01:51;;;;;;;1.67;1.40;;;26.30;53.00;;;;;;5061892;28;20167;-70
2022/08/20 01:04:18;;;;;;;1.90;1.52;;;26.20;52.90;;;;;;5078435;28;20128;-70
2022/08/20 01:06:43;;;;;;;1.70;1.40;;;26.20;52.90;;;;;;5063014;28;20063;-70
2022/08/20 01:09:10;;;;;;;1.75;1.33;;;26.20;52.90;;;;;;5062158;28;20502;-70
2022/08/20 01:11:36;;;;;;;2.30;1.58;;;26.20;52.90;;;;;;5063605;28;20079;-70
2022/08/20 01:16:55;;;;;;;1.83;1.50;;;26.20;53.40;;;;;;5059668;28;20064;-70
2022/08/20 01:19:27;;;;;;;;;;;26.30;53.50;;;;;;5063070;28;20052;-70
2022/08/20 01:21:53;;;;;;;1.80;1.38;;;26.20;52.90;;;;;;5093137;28;19904;-70
2022/08/20 01:24:30;;;;;;;2.58;1.60;;;26.20;52.90;;;;;;5063542;28;20024;-70
2022/08/20 01:27:00;;;;;;;1.90;1.50;;;26.20;52.90;;;;;;5078373;28;20017;-70
2022/08/20 01:29:33;;;;;;;1.60;1.30;;;26.20;52.90;;;;;;5059749;28;20059;-70
2022/08/20 01:32:00;;;;;;;1.83;1.40;;;26.20;53.00;;;;;;5061360;28;20547;-70
2022/08/20 01:34:26;;;;;;;2.53;1.50;;;26.20;52.90;;;;;;5078325;28;20024;-70
2022/08/20 01:36:54;;;;;;;1.73;1.30;;;26.20;52.90;;;;;;5061740;28;20028;-70
2022/08/20 01:39:34;;;;;;;1.90;1.40;;;26.20;52.90;;;;;;5059728;28;20032;-70
2022/08/20 01:42:13;;;;;;;2.00;1.60;;;26.20;52.90;;;;;;5060045;28;20016;-70
2022/08/20 01:44:41;;;;;;;1.58;1.40;;;26.20;52.90;;;;;;5068145;28;20033;-70
2022/08/20 01:47:30;;;;;;;2.25;1.50;;;26.20;52.90;;;;;;5059510;28;20025;-70
2022/08/20 01:50:04;;;;;;;2.00;1.45;;;26.20;52.90;;;;;;5061789;28;20124;-70
2022/08/20 01:52:47;;;;;;;2.05;1.55;;;26.20;52.90;;;;;;5060890;28;20032;-69
2022/08/20 01:55:13;;;;;;;2.20;1.60;;;26.20;52.90;;;;;;5062018;28;20024;-70
2022/08/20 01:57:39;;;;;;;1.98;1.48;;;26.20;53.40;;;;;;5062903;28;20130;-70
2022/08/20 02:00:11;;;;;;;1.75;1.30;;;26.20;52.90;;;;;;5060863;28;20143;-70
2022/08/20 02:02:37;;;;;;;2.33;1.50;;;26.20;52.90;;;;;;5060187;28;20037;-69
2022/08/20 02:05:03;;;;;;;1.88;1.50;;;26.20;53.00;;;;;;5062964;28;20044;-70
2022/08/20 02:07:31;;;;;;;2.10;1.50;;;26.20;52.90;;;;;;5060703;28;20021;-69
2022/08/20 02:09:57;;;;;;;1.48;1.30;;;26.20;52.90;;;;;;5041017;28;20036;-69
2022/08/20 02:12:23;;;;;;;1.63;1.40;;;26.20;52.90;;;;;;5061855;28;20504;-70
2022/08/20 02:14:51;;;;;;;2.08;1.50;;;26.20;52.90;;;;;;5061869;28;20028;-70
2022/08/20 02:17:21;;;;;;;1.75;1.40;;;26.20;52.90;;;;;;5059729;28;20115;-69
2022/08/20 02:20:02;;;;;;;1.85;1.50;;;26.20;52.90;;;;;;5059775;28;20056;-70
2022/08/20 02:22:42;;;;;;;1.77;1.42;;;26.20;52.90;;;;;;5061367;28;20040;-69
2022/08/20 02:25:10;;;;;;;2.10;1.40;;;26.20;52.90;;;;;;5061040;28;20388;-69
2022/08/20 02:27:39;;;;;;;1.70;1.40;;;26.20;52.90;;;;;;5043429;28;20025;-69
2022/08/20 02:30:10;;;;;;;1.77;1.60;;;26.20;52.90;;;;;;5060365;28;20427;-69
2022/08/20 02:32:37;;;;;;;1.90;1.50;;;26.20;52.90;;;;;;5060246;28;20043;-69
2022/08/20 02:35:09;;;;;;;1.83;1.48;;;26.20;52.90;;;;;;5061572;28;20841;-70
2022/08/20 02:37:36;;;;;;;2.28;1.50;;;26.20;52.90;;;;;;5060882;28;20496;-70
2022/08/20 02:40:06;;;;;;;1.50;1.23;;;26.20;52.90;;;;;;5060354;28;20044;-70
2022/08/20 02:42:31;;;;;;;1.50;1.40;;;26.20;52.90;;;;;;5061200;28;20063;-70
2022/08/20 02:44:57;;;;;;;1.92;1.40;;;26.10;52.80;;;;;;5060625;28;20086;-70
2022/08/20 02:47:23;;;;;;;1.45;1.30;;;26.10;52.80;;;;;;5061011;28;20490;-70
2022/08/20 02:49:49;;;;;;;1.90;1.40;;;26.20;52.90;;;;;;5060738;28;20430;-70
2022/08/20 02:52:15;;;;;;;2.13;1.65;;;26.20;52.90;;;;;;5060880;28;20025;-70
2022/08/20 02:54:40;;;;;;;2.10;1.38;;;26.10;52.80;;;;;;5060657;28;20048;-70
2022/08/20 02:57:12;;;;;;;2.22;1.50;;;26.10;52.80;;;;;;5059862;28;20025;-69
2022/08/20 02:59:38;;;;;;;1.77;1.42;;;26.20;52.90;;;;;;5060409;28;20024;-69
2022/08/20 03:02:04;;;;;;;1.77;1.40;;;26.10;52.80;;;;;;5078989;28;20514;-70
2022/08/20 03:04:29;;;;;;;1.73;1.45;;;26.10;52.80;;;;;;5081595;28;20031;-69
2022/08/20 03:06:56;;;;;;;1.67;1.40;;;26.10;52.80;;;;;;5080868;28;20054;-69
2022/08/20 03:09:22;;;;;;;2.03;1.50;;;26.10;52.80;;;;;;5081553;28;20467;-69
2022/08/20 03:11:48;;;;;;;1.90;1.38;;;26.10;52.80;;;;;;5080149;28;20039;-69
2022/08/20 03:14:13;;;;;;;1.75;1.45;;;26.10;52.80;;;;;;5079005;28;20040;-70
2022/08/20 03:16:39;;;;;;;1.75;1.38;;;26.20;52.80;;;;;;5080366;28;20107;-70
2022/08/20 03:19:04;;;;;;;1.83;1.40;;;26.10;52.80;;;;;;5081336;28;20031;-70
2022/08/20 03:21:30;;;;;;;2.38;1.50;;;26.10;52.80;;;;;;5080280;28;20028;-69
2022/08/20 03:23:56;;;;;;;2.35;1.50;;;26.10;52.80;;;;;;5078804;28;20033;-69
2022/08/20 03:26:22;;;;;;;2.30;1.60;;;26.10;52.80;;;;;;5081213;28;20028;-69
2022/08/20 03:28:47;;;;;;;1.90;1.40;;;26.20;52.90;;;;;;5081179;28;20092;-70
2022/08/20 03:31:14;;;;;;;1.90;1.50;;;26.10;52.80;;;;;;5069330;28;20477;-69
2022/08/20 03:33:40;;;;;;;1.70;1.40;;;26.10;52.80;;;;;;5060918;28;20480;-69
2022/08/20 03:36:06;;;;;;;1.70;1.40;;;26.10;53.30;;;;;;5061110;28;20059;-69
2022/08/20 03:38:32;;;;;;;2.10;1.50;;;26.10;52.80;;;;;;5059716;28;20029;-69
2022/08/20 03:40:58;;;;;;;1.77;1.40;;;26.10;52.80;;;;;;5060646;28;20028;-70
2022/08/20 03:43:23;;;;;;;1.77;1.40;;;26.10;52.80;;;;;;5060096;28;20538;-69
2022/08/20 03:45:49;;;;;;;2.13;1.52;;;26.10;52.80;;;;;;5059213;28;20040;-69
2022/08/20 03:48:18;;;;;;;1.50;1.38;;;26.10;52.80;;;;;;5060191;28;20383;-69
2022/08/20 03:50:46;;;;;;;1.67;1.40;;;26.10;52.80;;;;;;5059734;28;20092;-69
2022/08/20 03:53:12;;;;;;;2.10;1.60;;;26.10;52.80;;;;;;5063104;28;20500;-68
2022/08/20 03:55:39;;;;;;;2.25;1.77;;;26.10;52.80;;;;;;5063879;28;20455;-69
2022/08/20 03:58:07;;;;;;;1.67;1.33;;;26.10;52.80;;;;;;5065015;28;20507;-70
2022/08/20 04:00:48;;;;;;;1.42;1.30;;;26.10;52.80;;;;;;5061651;28;20033;-69
2022/08/20 04:03:14;;;;;;;1.60;1.30;;;26.10;52.80;;;;;;5069613;28;20041;-69
2022/08/20 04:05:41;;;;;;;2.00;1.50;;;26.10;52.80;;;;;;5064942;28;20031;-69
2022/08/20 04:08:11;;;;;;;1.55;1.35;;;26.10;52.80;;;;;;5063460;28;20039;-69
2022/08/20 04:10:37;;;;;;;1.65;1.40;;;26.10;52.80;;;;;;5063388;28;20090;-69
2022/08/20 04:13:05;;;;;;;1.65;1.40;;;26.10;52.80;;;;;;5063068;28;20056;-69
2022/08/20 04:15:33;;;;;;;2.30;1.52;;;26.00;52.70;;;;;;5062621;28;20483;-69
2022/08/20 04:17:59;;;;;;;2.03;1.63;;;26.10;52.80;;;;;;5063146;28;20507;-69
2022/08/20 04:20:25;;;;;;;1.98;1.45;;;26.10;52.80;;;;;;5063870;28;20025;-69
2022/08/20 04:22:54;;;;;;;1.63;1.40;;;26.00;52.70;;;;;;5064396;28;20143;-69
2022/08/20 04:25:20;;;;;;;2.00;1.50;;;26.00;52.70;;;;;;5063437;28;20032;-69
2022/08/20 04:27:49;;;;;;;1.95;1.50;;;26.10;52.80;;;;;;5077959;28;20090;-69
2022/08/20 04:30:17;;;;;;;1.88;1.50;;;26.00;52.70;;;;;;5079300;28;20020;-69
2022/08/20 04:32:48;;;;;;;1.83;1.42;;;26.00;52.70;;;;;;5063408;28;20024;-69
2022/08/20 04:35:16;;;;;;;1.60;1.40;;;26.00;52.70;;;;;;5063363;28;20384;-69
2022/08/20 04:37:45;;;;;;;2.03;1.50;;;26.10;52.80;;;;;;5063201;28;20032;-69
2022/08/20 04:42:59;;;;;;;1.95;1.50;;;26.10;52.80;;;;;;5061587;28;20124;-70
2022/08/20 04:45:25;;;;;;;1.92;1.40;;;26.00;52.70;;;;;;5063415;28;20451;-70
2022/08/20 04:47:51;;;;;;;1.77;1.50;;;26.00;52.70;;;;;;5068852;28;20063;-69
2022/08/20 04:50:18;;;;;;;1.50;1.35;;;26.00;52.70;;;;;;5061588;28;20029;-69
2022/08/20 04:52:43;;;;;;;1.77;1.50;;;26.00;52.70;;;;;;5064585;28;20500;-70
2022/08/20 04:55:09;;;;;;;2.05;1.40;;;26.00;52.70;;;;;;5061769;28;20103;-70
2022/08/20 04:57:37;;;;;;;1.80;1.48;;;26.00;52.70;;;;;;5063030;28;20041;-70
2022/08/20 05:00:09;;;;;;;1.95;1.58;;;26.00;52.70;;;;;;5078826;28;20116;-69
2022/08/20 05:02:34;;;;;;;2.08;1.73;;;26.00;52.70;;;;;;5080292;28;20037;-70
2022/08/20 05:05:00;;;;;;;1.80;1.40;;;26.00;52.70;;;;;;5082254;28;20025;-69
2022/08/20 05:07:26;;;;;;;1.92;1.50;;;26.00;52.80;;;;;;5083669;28;20060;-70
2022/08/20 05:09:51;;;;;;;1.95;1.50;;;26.00;52.70;;;;;;5082565;28;20063;-68
2022/08/20 05:12:18;;;;;;;1.73;1.42;;;26.00;52.80;;;;;;5081983;28;20463;-69
2022/08/20 05:14:44;;;;;;;1.58;1.42;;;26.00;52.70;;;;;;5084071;28;20024;-69
2022/08/20 05:17:13;;;;;;;1.70;1.50;;;26.00;52.70;;;;;;5082502;28;20115;-70
2022/08/20 05:19:40;;;;;;;2.15;1.60;;;26.00;52.70;;;;;;5081418;28;20369;-69
2022/08/20 05:22:06;;;;;;;2.10;1.60;;;26.00;52.70;;;;;;5083413;28;20025;-69
2022/08/20 05:24:31;;;;;;;2.17;1.60;;;26.00;52.70;;;;;;5082789;28;20042;-70
2022/08/20 05:26:59;;;;;;;1.80;1.40;;;26.00;52.70;;;;;;5081110;28;20417;-70
2022/08/20 05:29:25;;;;;;;1.85;1.42;;;26.00;52.70;;;;;;5082811;28;20024;-70
2022/08/20 05:31:50;;;;;;;2.00;1.58;;;26.00;52.70;;;;;;5080971;28;20478;-70
2022/08/20 05:34:16;;;;;;;2.05;1.50;;;26.00;52.70;;;;;;5080722;28;20031;-69
2022/08/20 05:36:45;;;;;;;2.28;1.77;;;26.00;52.80;;;;;;5082902;28;20048;-68
2022/08/20 05:39:12;;;;;;;3.25;2.33;;;25.90;53.50;;;;;;5081052;28;20026;-68
2022/08/20 05:41:39;;;;;;;3.50;2.05;;;25.70;53.80;;;;;;5082389;28;20036;-68
2022/08/20 05:44:12;;;;;;;3.45;2.30;;;25.70;54.40;;;;;;5080326;28;20026;-68
2022/08/20 05:46:39;;;;;;;3.08;2.08;;;25.50;55.00;;;;;;5082211;28;20032;-68
2022/08/20 05:49:06;;;;;;;3.22;2.50;;;25.40;55.40;;;;;;5082677;28;20036;-68
2022/08/20 05:51:31;;;;;;;3.58;2.22;;;25.20;55.90;;;;;;5081768;28;20094;-68
2022/08/20 05:53:57;;;;;;;2.58;1.85;;;25.10;56.10;;;;;;5082964;28;20474;-68
2022/08/20 05:56:23;;;;;;;2.85;2.00;;;24.90;56.50;;;;;;5080578;28;20472;-68
2022/08/20 05:58:48;;;;;;;4.35;2.00;;;24.80;56.70;;;;;;5083317;28;20452;-68
2022/08/20 06:01:14;;;;;;;2.65;1.80;;;24.70;57.20;;;;;;5080093;28;20108;-68
2022/08/20 06:06:24;;;;;;;2.38;1.38;;;24.60;57.40;;;;;;5081061;28;20444;-68
2022/08/20 06:08:49;;;;;;;2.00;1.48;;;24.70;57.00;;;;;;5080697;28;20127;-68
2022/08/20 06:11:15;;;;;;;2.20;1.80;;;24.60;57.30;;;;;;5079842;28;20302;-68
2022/08/20 06:13:40;;;;;;;2.58;1.80;;;24.60;57.40;;;;;;5081802;28;20378;-68
2022/08/20 06:16:06;;;;;;;3.20;1.90;;;24.50;57.90;;;;;;5081555;28;20035;-67
2022/08/20 06:18:31;;;;;;;3.63;2.00;;;24.40;57.90;;;;;;5079519;28;20031;-67
2022/08/20 06:20:57;;;;;;;2.90;1.77;;;24.30;58.30;;;;;;5081937;28;20075;-67
2022/08/20 06:23:24;;;;;;;3.55;1.75;;;24.20;58.80;;;;;;5081700;28;20482;-68
2022/08/20 06:25:49;;;;;;;3.13;1.88;;;24.10;59.10;;;;;;5082080;28;20056;-68
2022/08/20 06:28:16;;;;;;;4.10;1.50;;;24.10;59.20;;;;;;5080187;28;20505;-67
2022/08/20 06:30:41;;;;;;;2.65;1.80;;;24.00;59.50;;;;;;5079546;28;20020;-68
2022/08/20 06:33:07;;;;;;;3.20;2.08;;;23.90;60.20;;;;;;5081472;28;20576;-68
2022/08/20 06:35:32;;;;;;;2.47;1.70;;;23.90;60.00;;;;;;5081038;28;20528;-68
2022/08/20 06:37:59;;;;;;;2.95;1.90;;;23.80;60.20;;;;;;5079916;28;20043;-68
2022/08/20 06:40:27;;;;;;;2.03;1.60;;;23.80;60.30;;;;;;5080460;28;20490;-68
2022/08/20 06:42:53;;;;;;;2.63;1.70;;;23.70;60.50;;;;;;5061983;28;20044;-68
2022/08/20 06:45:23;;;;;;;3.55;1.90;;;23.80;60.60;;;;;;5081482;28;20052;-68
2022/08/20 06:47:50;;;;;;;2.15;1.40;;;23.70;60.20;;;;;;5080184;28;20034;-68
2022/08/20 06:50:22;;;;;;;2.92;1.60;;;23.70;60.50;;;;;;5081691;28;20047;-68
2022/08/20 06:52:48;;;;;;;3.20;1.80;;;23.70;60.90;;;;;;5081061;28;20100;-68
2022/08/20 06:55:16;;;;;;;2.47;1.65;;;23.70;61.10;;;;;;5081042;28;20112;-68
2022/08/20 06:57:42;;;;;;;2.40;1.60;;;23.70;61.40;;;;;;5078736;28;20134;-67
2022/08/20 07:00:14;;;;;;;2.60;1.67;;;23.60;61.60;;;;;;5079646;28;20024;-67
2022/08/20 07:02:40;;;;;;;2.40;1.50;;;23.60;61.60;;;;;;5079357;28;20115;-67
2022/08/20 07:05:06;;;;;;;3.65;1.70;;;23.60;61.50;;;;;;5081785;28;20027;-67
2022/08/20 07:07:33;;;;;;;2.30;1.50;;;23.60;61.80;;;;;;5079743;28;20024;-68
2022/08/20 07:10:06;;;;;;;2.00;1.52;;;23.50;61.70;;;;;;5079698;28;20051;-67
2022/08/20 07:12:35;;;;;;;2.22;1.40;;;23.50;61.90;;;;;;5080341;28;20131;-68
2022/08/20 07:15:06;;;;;;;1.90;1.40;;;23.40;61.50;;;;;;5081688;28;20026;-67
2022/08/20 07:17:31;;;;;;;1.77;1.42;;;23.50;62.00;;;;;;5078576;28;20036;-68
2022/08/20 07:19:57;;;;;;;2.47;1.55;;;23.50;62.10;;;;;;5081894;28;20109;-67
2022/08/20 07:22:23;;;;;;;2.38;1.60;;;23.50;61.50;;;;;;5079671;28;20024;-68
2022/08/20 07:24:49;;;;;;;2.92;1.70;;;23.50;61.80;;;;;;5080570;28;20447;-68
2022/08/20 07:27:22;;;;;;;1.70;1.38;;;23.50;62.00;;;;;;5081543;28;20020;-68
2022/08/20 07:32:35;;;;;;;3.40;1.50;;;23.50;62.70;;;;;;5084565;28;20047;-68
2022/08/20 07:35:10;;;;;;;2.10;1.33;;;23.50;62.10;;;;;;5085098;28;20530;-68
2022/08/20 07:37:38;;;;;;;1.67;1.30;;;23.50;62.50;;;;;;5083984;28;20503;-68
2022/08/20 07:40:05;;;;;;;1.98;1.30;;;23.50;62.50;;;;;;5084123;28;20028;-68
2022/08/20 07:42:31;;;;;;;1.45;1.10;;;23.60;62.20;;;;;;5082916;28;20395;-67
2022/08/20 07:44:57;;;;;;;1.77;1.13;;;23.60;61.50;;;;;;5083057;28;20028;-67
2022/08/20 07:47:22;;;;;;;1.90;1.17;;;23.60;61.20;;;;;;5084389;28;20480;-67
2022/08/20 07:49:48;;;;;;;1.38;1.08;;;23.70;61.00;;;;;;5085032;28;20020;-68
2022/08/20 07:52:14;;;;;;;1.90;1.10;;;23.70;60.80;;;;;;5083713;28;20023;-67
2022/08/20 07:54:41;;;;;;;1.67;1.13;;;23.70;60.40;;;;;;5082418;28;20025;-67
2022/08/20 07:57:08;;;;;;;1.17;1.00;;;23.70;60.30;;;;;;5085293;28;20035;-67
2022/08/20 07:59:34;;;;;;;1.35;1.00;;;23.80;60.20;;;;;;5084670;28;20031;-67
2022/08/20 08:01:59;;;;;;;1.05;0.90;;;23.80;59.90;;;;;;5082709;28;20392;-67
2022/08/20 08:04:25;;;;;;;1.33;1.00;;;23.80;59.80;;;;;;5084573;28;20514;-68
2022/08/20 08:06:51;;;;;;;1.00;0.90;;;23.80;59.60;;;;;;5084365;28;20016;-67
2022/08/20 08:09:17;;;;;;;1.23;1.00;;;23.90;59.60;;;;;;5082470;28;20484;-67
2022/08/20 08:11:50;;;;;;;1.80;1.30;;;23.90;59.40;;;;;;5084399;28;20035;-68
2022/08/20 08:14:22;;;;;;;1.67;1.17;;;23.90;59.40;;;;;;5084926;28;20112;-67
2022/08/20 08:16:48;;;;;;;1.20;1.00;;;23.90;59.20;;;;;;5082628;28;20428;-67
2022/08/20 08:19:16;;;;;;;1.30;1.00;;;23.90;59.20;;;;;;5085484;28;20028;-67
2022/08/20 08:21:43;;;;;;;1.27;0.88;;;23.90;59.10;;;;;;5082518;28;20024;-67
2022/08/20 08:24:10;;;;;;;1.20;1.05;;;23.90;58.90;;;;;;5084946;28;20032;-67
2022/08/20 08:26:36;;;;;;;1.52;1.10;;;23.90;59.30;;;;;;5084899;28;20048;-67
2022/08/20 08:29:02;;;;;;;1.50;1.10;;;24.00;58.80;;;;;;5082995;28;20070;-68
2022/08/20 08:31:28;;;;;;;0.88;0.80;;;24.00;58.60;;;;;;5083445;28;20020;-67
2022/08/20 08:33:54;;;;;;;1.48;0.90;;;24.00;58.60;;;;;;5083631;28;20791;-67
2022/08/20 08:36:20;;;;;;;1.27;1.00;;;24.00;58.50;;;;;;5083692;28;20028;-67
2022/08/20 08:38:45;;;;;;;1.40;1.00;;;24.10;58.50;;;;;;5082182;28;20028;-68
2022/08/20 08:41:28;;;;;;;1.38;0.90;;;24.00;58.30;;;;;;5084364;28;20475;-67
2022/08/20 08:44:03;;;;;;;1.40;1.10;;;24.10;58.30;;;;;;5082749;28;20429;-67
2022/08/20 08:46:31;;;;;;;1.20;0.88;;;24.10;58.10;;;;;;5085194;28;20028;-67
2022/08/20 08:49:00;;;;;;;1.50;1.00;;;24.10;58.10;;;;;;5080939;28;20379;-67
2022/08/20 08:51:43;;;;;;;1.40;0.95;;;24.10;58.00;;;;;;5081615;28;20027;-67
2022/08/20 08:54:16;;;;;;;1.00;0.90;;;24.10;58.00;;;;;;5082322;28;20059;-68
2022/08/20 08:56:42;;;;;;;0.90;0.80;;;24.10;58.00;;;;;;5081518;28;20031;-67
2022/08/20 08:59:09;;;;;;;1.40;1.00;;;24.20;57.90;;;;;;5084081;28;20039;-67
2022/08/20 09:01:53;;;;;;;1.02;0.80;;;24.20;57.90;;;;;;5081434;28;20090;-67
2022/08/20 09:04:23;;;;;;;1.30;0.90;;;24.20;57.90;;;;;;5081917;28;20025;-68
2022/08/20 09:06:53;;;;;;;1.17;0.95;;;24.20;57.80;;;;;;5084019;28;20032;-67
2022/08/20 09:09:45;;;;;;;1.00;0.80;;;24.20;57.70;;;;;;5082320;28;20570;-68
2022/08/20 09:12:21;;;;;;;1.83;1.08;;;24.20;58.00;;;;;;5081511;28;20313;-67
2022/08/20 09:14:48;;;;;;;1.30;0.98;;;24.20;58.10;;;;;;5082102;28;20110;-68
2022/08/20 09:17:15;;;;;;;1.25;0.90;;;24.30;57.50;;;;;;5083097;28;20028;-67
2022/08/20 09:19:40;;;;;;;1.25;1.08;;;24.30;57.40;;;;;;5081592;28;20024;-67
2022/08/20 09:22:12;;;;;;;1.17;0.90;;;24.30;57.40;;;;;;5083384;28;20095;-68
2022/08/20 09:24:39;;;;;;;0.90;0.90;;;24.30;57.50;;;;;;5083398;28;20064;-67
2022/08/20 09:27:05;;;;;;;1.20;1.00;;;24.30;57.40;;;;;;5081864;28;20500;-67
2022/08/20 09:29:31;;;;;;;1.55;0.90;;;24.30;57.30;;;;;;5083339;28;20081;-67
2022/08/20 09:32:19;;;;;;;1.35;1.00;;;24.30;57.20;;;;;;5081352;28;20024;-67
2022/08/20 09:34:47;;;;;;;1.17;1.02;;;24.30;57.20;;;;;;5082662;28;20027;-67
2022/08/20 09:37:13;;;;;;;1.20;0.93;;;24.30;57.10;;;;;;5082566;28;20024;-68
2022/08/20 09:39:39;;;;;;;1.02;0.90;;;24.30;57.00;;;;;;5081254;28;20037;-68
2022/08/20 09:42:10;;;;;;;1.00;0.90;;;24.30;57.00;;;;;;5082703;28;20358;-67
2022/08/20 09:44:37;;;;;;;1.15;0.90;;;24.30;56.90;;;;;;5080736;28;20150;-67
2022/08/20 09:47:03;;;;;;;0.95;0.88;;;24.30;56.80;;;;;;5082077;28;20464;-67
2022/08/20 09:49:28;;;;;;;2.17;1.00;;;24.30;56.90;;;;;;5082742;28;20028;-63
2022/08/20 09:51:54;;;;;;;1.15;1.00;;;24.40;56.90;;;;;;5081672;28;20460;-63
2022/08/20 09:54:21;;;;;;;1.33;1.00;;;24.40;57.00;;;;;;5081932;28;20391;-62
2022/08/20 09:56:47;;;;;;;0.85;0.85;;;24.40;56.80;;;;;;5081630;28;20468;-63
2022/08/20 09:59:14;;;;;;;1.38;1.00;;;24.40;56.80;;;;;;5080969;28;20025;-63
2022/08/20 10:01:40;;;;;;;1.83;0.90;;;24.50;56.80;;;;;;5082224;28;20062;-63
2022/08/20 10:04:06;;;;;;;1.00;0.80;;;24.40;56.70;;;;;;5081066;28;20021;-63
2022/08/20 10:06:38;;;;;;;1.55;1.17;;;24.40;56.70;;;;;;5082080;28;20025;-63
2022/08/20 10:09:04;;;;;;;1.30;1.00;;;24.40;56.70;;;;;;5081460;28;20463;-63
2022/08/20 10:11:30;;;;;;;1.30;1.00;;;24.50;56.70;;;;;;5081498;28;20023;-63
2022/08/20 10:13:55;;;;;;;1.63;1.10;;;24.50;56.60;;;;;;5080974;28;20125;-63
2022/08/20 10:16:21;;;;;;;1.42;1.00;;;24.50;56.70;;;;;;5080745;28;20048;-63
2022/08/20 10:18:49;;;;;;;1.17;1.00;;;24.50;56.50;;;;;;5081319;28;20035;-63
2022/08/20 10:21:15;;;;;;;1.50;1.05;;;24.50;56.50;;;;;;5081794;28;20032;-63
2022/08/20 10:23:42;;;;;;;1.60;1.20;;;24.50;56.40;;;;;;5080928;28;20666;-63
2022/08/20 10:26:09;;;;;;;1.25;1.08;;;24.50;56.40;;;;;;5082442;28;20031;-63
2022/08/20 10:28:35;;;;;;;1.35;1.08;;;24.50;56.80;;;;;;5079050;28;20024;-63
2022/08/20 10:31:00;;;;;;;1.42;1.10;;;24.50;56.30;;;;;;5081226;28;20038;-63
2022/08/20 10:33:26;;;;;;;1.30;1.10;;;24.50;56.20;;;;;;5081478;28;20419;-63
2022/08/20 10:35:52;;;;;;;1.20;1.00;;;24.60;56.20;;;;;;5081930;28;20454;-62
2022/08/20 10:38:17;;;;;;;1.30;1.10;;;24.60;56.20;;;;;;5080838;28;20028;-63
2022/08/20 10:40:43;;;;;;;1.23;1.13;;;24.60;56.20;;;;;;5081386;28;20124;-62
2022/08/20 10:43:09;;;;;;;1.40;1.08;;;24.60;56.20;;;;;;5080743;28;20031;-63
2022/08/20 10:45:34;;;;;;;1.40;1.10;;;24.60;56.20;;;;;;5080018;28;20032;-63
2022/08/20 10:48:00;;;;;;;1.30;1.10;;;24.60;56.10;;;;;;5082560;28;20107;-63
2022/08/20 10:50:26;;;;;;;1.58;1.13;;;24.60;56.10;;;;;;5082170;28;20024;-63
2022/08/20 10:52:52;;;;;;;1.30;1.00;;;24.60;56.10;;;;;;5080288;28;20097;-62
2022/08/20 10:55:18;;;;;;;1.52;1.10;;;24.60;56.10;;;;;;5081964;28;20472;-63
2022/08/20 10:57:43;;;;;;;1.15;1.02;;;24.60;56.00;;;;;;5080743;28;20108;-62
2022/08/20 11:00:12;;;;;;;1.30;1.08;;;24.60;56.60;;;;;;5079554;28;20032;-63
2022/08/20 11:02:38;;;;;;;1.80;1.20;;;24.60;56.00;;;;;;5078734;28;20067;-63
2022/08/20 11:05:04;;;;;;;1.40;1.10;;;24.60;56.50;;;;;;5080642;28;20081;-63
2022/08/20 11:07:34;;;;;;;1.50;1.17;;;24.60;56.00;;;;;;5080832;28;20021;-63
2022/08/20 11:09:59;;;;;;;;;;;24.60;56.40;;;;;;5079922;28;20024;-62
2022/08/20 11:12:25;;;;;;;1.27;0.98;;;24.70;56.00;;;;;;5080832;28;19942;-62
2022/08/20 11:14:52;;;;;;;1.30;1.00;;;24.70;55.90;;;;;;5081100;28;20028;-63
2022/08/20 11:17:32;;;;;;;1.60;1.20;;;24.70;56.00;;;;;;5080802;28;20471;-63
2022/08/20 11:19:58;;;;;;;;;;;24.70;55.80;;;;;;5080861;28;20078;-62
2022/08/20 11:22:25;;;;;;;1.17;1.00;;;24.70;55.90;;;;;;5081362;28;19904;-63
2022/08/20 11:24:51;;;;;;;1.10;1.00;;;24.70;55.70;;;;;;5080868;28;20480;-63
2022/08/20 11:27:22;;;;;;;1.85;1.20;;;24.70;55.70;;;;;;5079538;28;20035;-63
2022/08/20 11:29:48;;;;;;;1.23;1.00;;;24.70;55.70;;;;;;5080904;28;20023;-62
2022/08/20 11:32:14;;;;;;;1.45;1.08;;;24.70;55.60;;;;;;5079633;28;20388;-62
2022/08/20 11:34:39;;;;;;;1.30;1.10;;;24.70;55.60;;;;;;5080495;28;20523;-62
2022/08/20 11:37:05;;;;;;;1.23;1.10;;;24.80;55.60;;;;;;5080378;28;20059;-62
2022/08/20 11:39:31;;;;;;;1.27;1.17;;;24.80;55.60;;;;;;5081286;28;20028;-63
2022/08/20 11:41:56;;;;;;;1.40;1.10;;;24.80;55.60;;;;;;5080509;28;20066;-62
2022/08/20 11:44:22;;;;;;;1.63;1.00;;;24.80;55.50;;;;;;5081050;28;20583;-62
2022/08/20 11:46:48;;;;;;;1.60;1.15;;;24.80;55.40;;;;;;5080263;28;20029;-62
2022/08/20 11:49:13;;;;;;;1.27;1.13;;;24.80;55.50;;;;;;5081147;28;20032;-62
2022/08/20 11:51:39;;;;;;;1.73;1.20;;;24.80;55.40;;;;;;5079576;28;20498;-62
2022/08/20 11:54:05;;;;;;;1.70;1.20;;;24.80;55.90;;;;;;5081602;28;20035;-63
2022/08/20 11:56:31;;;;;;;1.40;1.13;;;24.80;55.30;;;;;;5079407;28;20408;-62
2022/08/20 11:58:57;;;;;;;1.75;1.10;;;24.80;55.30;;;;;;5081134;28;20045;-63
2022/08/20 12:01:22;;;;;;;1.50;1.30;;;24.80;55.30;;;;;;5079791;28;20168;-62
2022/08/20 12:03:51;;;;;;;1.40;1.10;;;24.80;55.30;;;;;;5081204;28;20040;-62
2022/08/20 12:06:17;;;;;;;1.25;1.10;;;24.80;55.20;;;;;;5079330;28;20463;-63
2022/08/20 12:08:43;;;;;;;1.27;1.00;;;24.90;55.30;;;;;;5080570;28;20115;-63
2022/08/20 12:11:08;;;;;;;1.55;1.10;;;24.80;55.20;;;;;;5080989;28;20214;-62
2022/08/20 12:13:36;;;;;;;1.55;1.10;;;24.90;55.20;;;;;;5080571;28;20127;-62
2022/08/20 12:16:03;;;;;;;1.30;1.20;;;24.90;55.30;;;;;;5084130;28;20067;-63
2022/08/20 12:18:30;;;;;;;1.75;1.17;;;24.90;55.10;;;;;;5085010;28;20036;-63
2022/08/20 12:20:56;;;;;;;1.70;1.13;;;24.90;55.00;;;;;;5082790;28;20064;-62
2022/08/20 12:23:22;;;;;;;1.95;1.30;;;24.90;55.10;;;;;;5083857;28;20027;-62
2022/08/20 12:25:48;;;;;;;1.15;1.00;;;24.90;55.00;;;;;;5084915;28;20028;-62
2022/08/20 12:28:15;;;;;;;1.67;1.30;;;24.90;54.90;;;;;;5082923;28;20383;-62
2022/08/20 12:30:40;;;;;;;1.27;1.10;;;24.90;54.90;;;;;;5082109;28;20029;-62
2022/08/20 12:33:06;;;;;;;1.33;1.17;;;24.90;55.00;;;;;;5083165;28;20027;-62
2022/08/20 12:35:32;;;;;;;1.48;1.00;;;24.90;54.90;;;;;;5083920;28;20029;-63
2022/08/20 12:38:02;;;;;;;1.30;1.05;;;24.90;54.80;;;;;;5084185;28;20082;-63
2022/08/20 12:40:28;;;;;;;1.52;1.10;;;24.90;55.00;;;;;;5083772;28;20466;-63
2022/08/20 12:42:53;;;;;;;1.48;1.20;;;25.00;55.00;;;;;;5082767;28;20056;-63
2022/08/20 12:45:20;;;;;;;1.27;1.10;;;25.00;54.80;;;;;;5084714;28;20039;-63
2022/08/20 12:47:46;;;;;;;1.35;1.15;;;25.00;54.90;;;;;;5083189;28;20032;-63
2022/08/20 12:50:21;;;;;;;1.42;1.10;;;25.00;54.80;;;;;;5082114;28;20025;-63
2022/08/20 12:52:48;;;;;;;1.60;1.20;;;25.00;54.80;;;;;;5084375;28;20062;-63
2022/08/20 12:55:17;;;;;;;1.23;1.02;;;25.00;54.80;;;;;;5082348;28;20032;-63
2022/08/20 12:57:55;;;;;;;1.40;1.20;;;25.00;54.80;;;;;;5084109;28;20177;-63
2022/08/20 13:00:33;;;;;;;1.83;1.30;;;25.00;54.70;;;;;;5081264;28;20032;-63
2022/08/20 13:03:01;;;;;;;1.02;0.93;;;25.00;54.70;;;;;;5081573;28;20255;-63